Time;durP1;ratioP1;P1;durP2;ratioP2;P2;SDS_P1;SDS_P2;PMS_P1;PMS_P2;Temp;Humidity;BMP_temperature;BMP_pressure;BME280_temperature;BME280_humidity;BME280_pressure;Samples;Min_cycle;Max_cycle;Signal;HPM_P1;HPM_P2
2022/07/13 00:00:40;;;;;;;2.95;2.17;;;28.80;58.30;;;-143.79;100.00;62634.88;5032359;28;20034;-54
2022/07/13 00:03:06;;;;;;;3.38;2.38;;;;;;;-143.79;100.00;62634.88;5032098;28;20120;-54
2022/07/13 00:05:32;;;;;;;2.00;1.90;;;25.80;76.80;;;-143.79;100.00;62634.88;5032493;28;20033;-56
2022/07/13 00:07:58;;;;;;;2.28;2.08;;;;;;;-143.79;100.00;62634.88;5032579;28;20108;-56
2022/07/13 00:10:24;;;;;;;3.00;2.00;;;;;;;-143.79;100.00;62634.88;5032257;28;20112;-56
2022/07/13 00:12:50;;;;;;;2.55;2.25;;;26.30;79.60;;;-143.79;100.00;62634.88;5032277;28;20430;-57
2022/07/13 00:15:16;;;;;;;4.53;2.15;;;;;;;-143.79;100.00;62634.88;5032064;28;20030;-56
2022/07/13 00:17:42;;;;;;;2.35;2.15;;;;;;;-143.79;100.00;62634.88;5032384;28;20037;-56
2022/07/13 00:20:08;;;;;;;2.35;1.95;;;26.10;74.50;;;-143.79;100.00;62634.88;5032046;28;20029;-56
2022/07/13 00:22:34;;;;;;;1.80;1.70;;;26.20;91.00;;;-143.79;100.00;62634.88;5032418;28;20033;-56
2022/07/13 00:25:00;;;;;;;2.15;2.05;;;25.80;71.70;;;-143.79;100.00;62634.88;5032131;28;20032;-56
2022/07/13 00:27:26;;;;;;;2.15;2.00;;;;;;;-143.79;100.00;62634.88;5032004;28;20029;-55
2022/07/13 00:29:52;;;;;;;2.05;1.95;;;;;;;-143.79;100.00;62634.88;5032055;28;20033;-55
2022/07/13 00:32:18;;;;;;;2.95;2.10;;;;;;;-143.79;100.00;62634.88;5032002;28;20037;-56
2022/07/13 00:34:44;;;;;;;2.42;2.22;;;25.90;73.40;;;-143.79;100.00;62634.88;5031965;28;20068;-57
2022/07/13 00:37:10;;;;;;;2.33;2.10;;;;;;;-143.79;100.00;62634.88;5031847;28;20065;-55
2022/07/13 00:39:36;;;;;;;2.70;2.50;;;;;;;-143.79;100.00;62634.88;5032001;28;20549;-55
2022/07/13 00:42:02;;;;;;;2.75;1.98;;;;;;;-143.79;100.00;62634.88;5032084;28;20046;-55
2022/07/13 00:44:28;;;;;;;2.60;2.10;;;;;;;-143.79;100.00;62634.88;5034115;28;20116;-56
2022/07/13 00:46:55;;;;;;;2.30;2.20;;;25.90;57.20;;;-143.79;100.00;62634.88;5035955;28;20091;-56
2022/07/13 00:49:22;;;;;;;2.30;2.10;;;26.30;91.10;;;-143.79;100.00;62634.88;5034695;28;20154;-56
2022/07/13 00:51:49;;;;;;;2.50;2.30;;;;;;;-143.79;100.00;62634.88;5034643;28;20033;-55
2022/07/13 00:54:18;;;;;;;2.40;2.20;;;25.90;57.80;;;-143.79;100.00;62634.88;5034581;28;20033;-55
2022/07/13 00:56:44;;;;;;;2.00;1.90;;;26.30;90.80;;;-143.79;100.00;62634.88;5035796;28;20065;-55
2022/07/13 00:59:10;;;;;;;2.35;1.95;;;26.10;64.90;;;-143.79;100.00;62634.88;5035723;28;20069;-56
2022/07/13 01:01:36;;;;;;;2.17;2.00;;;;;;;-143.79;100.00;62634.88;5035464;28;20044;-55
2022/07/13 01:04:02;;;;;;;2.75;2.00;;;;;;;-143.79;100.00;62634.88;5035629;28;20034;-56
2022/07/13 01:06:28;;;;;;;2.00;1.80;;;26.50;62.10;;;-143.79;100.00;62634.88;5035832;28;20029;-54
2022/07/13 01:08:54;;;;;;;2.22;2.00;;;;;;;-143.79;100.00;62634.88;5035600;28;20480;-56
2022/07/13 01:11:20;;;;;;;2.00;1.90;;;;;;;-143.79;100.00;62634.88;5035427;28;20048;-55
2022/07/13 01:13:46;;;;;;;2.47;2.22;;;;;;;-143.79;100.00;62634.88;5034250;28;20079;-56
2022/07/13 01:16:12;;;;;;;2.15;2.00;;;;;;;-143.79;100.00;62634.88;5034138;28;20089;-53
2022/07/13 01:18:39;;;;;;;2.28;2.08;;;26.00;75.40;;;-143.79;100.00;62634.88;5034169;28;20037;-56
2022/07/13 01:21:08;;;;;;;2.38;2.17;;;26.30;91.20;;;-143.79;100.00;62634.88;5035554;28;20041;-55
2022/07/13 01:23:34;;;;;;;2.67;2.03;;;;;;;-143.79;100.00;62634.88;5035289;28;20025;-56
2022/07/13 01:26:02;;;;;;;1.95;1.85;;;25.90;57.80;;;-143.79;100.00;62634.88;5035287;28;20088;-56
2022/07/13 01:28:28;;;;;;;2.28;2.17;;;;;;;-143.79;100.00;62634.88;5035161;28;20041;-55
2022/07/13 01:30:53;;;;;;;2.30;2.10;;;26.20;72.80;;;-143.79;100.00;62634.88;5035188;28;20088;-56
2022/07/13 01:33:19;;;;;;;2.78;2.00;;;26.00;90.70;;;-143.79;100.00;62634.88;5035120;28;20041;-56
2022/07/13 01:35:45;;;;;;;2.25;1.85;;;;;;;-143.79;100.00;62634.88;5034983;28;20059;-55
2022/07/13 01:38:11;;;;;;;2.28;2.05;;;25.90;91.10;;;-143.79;100.00;62634.88;5035108;28;20045;-56
2022/07/13 01:40:41;;;;;;;2.63;2.10;;;26.10;91.10;;;-143.79;100.00;62634.88;5033742;28;20064;-55
2022/07/13 01:43:08;;;;;;;2.65;2.45;;;;;;;-143.79;100.00;62634.88;5034937;28;20064;-55
2022/07/13 01:45:33;;;;;;;2.15;2.00;;;26.30;91.20;;;-143.79;100.00;62634.88;5034822;28;20116;-55
2022/07/13 01:47:59;;;;;;;2.10;2.00;;;25.80;72.60;;;-143.79;100.00;62634.88;5034828;28;20076;-56
2022/07/13 01:50:27;;;;;;;2.50;2.10;;;25.90;56.70;;;-143.79;100.00;62634.88;5034817;28;20043;-56
2022/07/13 01:52:53;;;;;;;1.75;1.60;;;25.50;90.80;;;-143.79;100.00;62634.88;5034726;28;20030;-56
2022/07/13 01:55:19;;;;;;;2.83;1.98;;;25.50;90.90;;;-143.79;100.00;62634.88;5033266;28;20246;-55
2022/07/13 01:57:46;;;;;;;2.10;2.00;;;26.20;91.20;;;-143.79;100.00;62634.88;5034642;28;20060;-55
2022/07/13 02:00:17;;;;;;;2.20;2.00;;;25.90;55.10;;;-143.79;100.00;62634.88;5034566;28;20036;-56
2022/07/13 02:02:44;;;;;;;1.63;1.50;;;25.90;91.00;;;-143.79;100.00;62634.88;5034278;28;20049;-55
2022/07/13 02:05:11;;;;;;;2.58;2.22;;;;;;;-143.79;100.00;62634.88;5034527;28;20056;-55
2022/07/13 02:07:37;;;;;;;2.90;2.10;;;26.20;58.20;;;-143.79;100.00;62634.88;5034719;28;20025;-55
2022/07/13 02:10:05;;;;;;;1.90;1.80;;;25.60;91.00;;;-143.79;100.00;62634.88;5034469;28;20044;-55
2022/07/13 02:12:31;;;;;;;2.08;1.75;;;25.60;91.00;;;-143.79;100.00;62634.88;5034396;28;20025;-55
2022/07/13 02:14:57;;;;;;;2.65;2.17;;;26.00;91.00;;;-143.79;100.00;62634.88;5034343;28;20396;-53
2022/07/13 02:17:23;;;;;;;1.92;1.80;;;26.10;91.10;;;-143.79;100.00;62634.88;5034397;28;20037;-55
2022/07/13 02:19:48;;;;;;;1.83;1.73;;;25.70;90.90;;;-143.79;100.00;62634.88;5034217;28;20525;-52
2022/07/13 02:22:15;;;;;;;2.03;1.85;;;;;;;-143.79;100.00;62634.88;5034229;28;20037;-52
2022/07/13 02:24:40;;;;;;;2.78;1.92;;;25.90;91.00;;;-143.79;100.00;62634.88;5034326;28;20025;-52
2022/07/13 02:27:06;;;;;;;2.03;1.83;;;;;;;-143.79;100.00;62634.88;5034099;28;20052;-53
2022/07/13 02:29:33;;;;;;;2.97;2.10;;;;;;;-143.79;100.00;62634.88;5034044;28;20036;-55
2022/07/13 02:31:58;;;;;;;1.90;1.80;;;25.80;76.50;;;-143.79;100.00;62634.88;5034083;28;20033;-52
2022/07/13 02:34:27;;;;;;;3.05;2.45;;;25.50;89.10;;;-143.79;100.00;62634.88;5034219;28;20025;-54
2022/07/13 02:36:54;;;;;;;2.35;2.00;;;26.20;91.10;;;-143.79;100.00;62634.88;5032720;28;20124;-51
2022/07/13 02:39:20;;;;;;;2.33;2.13;;;25.80;57.40;;;-143.79;100.00;62634.88;5033971;28;20030;-51
2022/07/13 02:41:46;;;;;;;2.17;2.08;;;;;;;-143.79;100.00;62634.88;5034085;28;20052;-54
2022/07/13 02:44:13;;;;;;;2.10;1.90;;;;;;;-143.79;100.00;62634.88;5033834;28;20034;-54
2022/07/13 02:46:38;;;;;;;2.45;2.25;;;25.90;85.90;;;-143.79;100.00;62634.88;5033771;28;20052;-52
2022/07/13 02:49:04;;;;;;;2.40;2.20;;;26.00;79.80;;;-143.79;100.00;62634.88;5033730;28;20491;-54
2022/07/13 02:51:30;;;;;;;3.00;2.20;;;;;;;-143.79;100.00;62634.88;5033743;28;20060;-51
2022/07/13 02:53:56;;;;;;;2.83;2.30;;;;;;;-143.79;100.00;62634.88;5033618;28;20034;-52
2022/07/13 02:56:22;;;;;;;2.05;1.85;;;;;;;-143.79;100.00;62634.88;5033440;28;20048;-54
2022/07/13 02:58:48;;;;;;;2.63;2.25;;;;;;;-143.79;100.00;62634.88;5033477;28;20076;-50
2022/07/13 03:01:14;;;;;;;2.58;2.10;;;25.60;75.90;;;-143.79;100.00;62634.88;5033430;28;20036;-55
2022/07/13 03:03:40;;;;;;;2.20;2.00;;;;;;;-143.79;100.00;62634.88;5033263;28;20050;-53
2022/07/13 03:06:06;;;;;;;2.13;1.92;;;;;;;-143.79;100.00;62634.88;5032784;28;20044;-54
2022/07/13 03:08:32;;;;;;;3.80;1.95;;;26.10;91.00;;;-143.79;100.00;62634.88;5033380;28;20392;-55
2022/07/13 03:10:58;;;;;;;2.10;1.92;;;26.30;77.40;;;-143.79;100.00;62634.88;5033316;28;20037;-54
2022/07/13 03:13:24;;;;;;;1.92;1.70;;;;;;;-143.79;100.00;62634.88;5033282;28;20040;-54
2022/07/13 03:15:50;;;;;;;2.30;2.03;;;;;;;-143.79;100.00;62634.88;5033072;28;20103;-54
2022/07/13 03:18:16;;;;;;;2.00;1.85;;;;;;;-143.79;100.00;62634.88;5033123;28;20044;-53
2022/07/13 03:20:42;;;;;;;2.30;2.10;;;26.10;66.90;;;-143.79;100.00;62634.88;5033097;28;20033;-53
2022/07/13 03:23:08;;;;;;;2.08;1.88;;;;;;;-143.79;100.00;62634.88;5033067;28;20039;-55
2022/07/13 03:25:34;;;;;;;2.88;1.98;;;;;;;-143.79;100.00;62634.88;5033022;28;20037;-55
2022/07/13 03:28:00;;;;;;;2.35;2.10;;;;;;;-143.79;100.00;62634.88;5033033;28;20040;-53
2022/07/13 03:30:26;;;;;;;2.33;2.00;;;;;;;-143.79;100.00;62634.88;5032932;28;20087;-52
2022/07/13 03:32:52;;;;;;;2.30;2.08;;;26.10;74.60;;;-143.79;100.00;62634.88;5031555;28;20029;-55
2022/07/13 03:35:18;;;;;;;2.67;1.98;;;;;;;-143.79;100.00;62634.88;5032736;28;20025;-54
2022/07/13 03:37:44;;;;;;;2.10;1.90;;;;;;;-143.79;100.00;62634.88;5032835;28;20504;-55
2022/07/13 03:40:11;;;;;;;2.78;2.00;;;26.00;69.80;;;-143.79;100.00;62634.88;5032753;28;20396;-53
2022/07/13 03:42:39;;;;;;;1.85;1.75;;;26.00;57.70;;;-143.79;100.00;62634.88;5033020;28;20116;-54
2022/07/13 03:45:06;;;;;;;2.85;1.92;;;26.10;90.90;;;-143.79;100.00;62634.88;5032930;28;20100;-54
2022/07/13 03:47:32;;;;;;;2.08;1.98;;;;;;;-143.79;100.00;62634.88;5031372;28;20443;-54
2022/07/13 03:49:58;;;;;;;1.90;1.80;;;;;;;-143.79;100.00;62634.88;5032537;28;20044;-52
2022/07/13 03:52:24;;;;;;;1.88;1.55;;;;;;;-143.79;100.00;62634.88;5032540;28;20040;-54
2022/07/13 03:54:50;;;;;;;1.73;1.63;;;25.60;74.00;;;-143.79;100.00;62634.88;5032736;28;20029;-55
2022/07/13 03:57:16;;;;;;;1.70;1.60;;;;;;;-143.79;100.00;62634.88;5032655;28;20033;-53
2022/07/13 03:59:42;;;;;;;1.98;1.88;;;;;;;-143.79;100.00;62634.88;5032424;28;20038;-55
2022/07/13 04:02:08;;;;;;;2.33;2.13;;;25.40;71.80;;;-143.79;100.00;62634.88;5032073;28;20041;-54
2022/07/13 04:04:34;;;;;;;2.72;1.90;;;;;;;-143.79;100.00;62634.88;5032443;28;20044;-54
2022/07/13 04:07:00;;;;;;;1.95;1.77;;;;;;;-143.79;100.00;62634.88;5032231;28;20040;-55
2022/07/13 04:09:26;;;;;;;4.05;1.90;;;26.30;60.00;;;-143.79;100.00;62634.88;5032280;28;20480;-54
2022/07/13 04:11:52;;;;;;;2.22;2.03;;;;;;;-143.79;100.00;62634.88;5032265;28;20041;-53
2022/07/13 04:14:18;;;;;;;2.22;1.83;;;;;;;-143.79;100.00;62634.88;5032192;28;20507;-55
2022/07/13 04:16:44;;;;;;;2.05;1.90;;;26.10;66.50;;;-143.79;100.00;62634.88;5032209;28;20041;-55
2022/07/13 04:19:10;;;;;;;1.92;1.83;;;;;;;-143.79;100.00;62634.88;5032173;28;20044;-54
2022/07/13 04:21:36;;;;;;;2.00;1.75;;;26.20;64.00;;;-143.79;100.00;62634.88;5032489;28;20036;-54
2022/07/13 04:24:02;;;;;;;2.70;1.90;;;;;;;-143.79;100.00;62634.88;5032172;28;20029;-54
2022/07/13 04:26:29;;;;;;;1.63;1.52;;;;;;;-143.79;100.00;62634.88;5032114;28;20037;-56
2022/07/13 04:28:55;;;;;;;1.95;1.73;;;26.00;90.90;;;-143.79;100.00;62634.88;5032103;28;20117;-57
2022/07/13 04:31:21;;;;;;;2.13;1.92;;;26.00;90.80;;;-143.79;100.00;62634.88;5032070;28;20057;-55
2022/07/13 04:33:47;;;;;;;1.70;1.58;;;25.80;66.30;;;-143.79;100.00;62634.88;5032356;28;20117;-57
2022/07/13 04:36:12;;;;;;;2.05;1.85;;;25.60;90.60;;;-143.79;100.00;62634.88;5032175;28;20049;-56
2022/07/13 04:38:38;;;;;;;1.67;1.35;;;;;;;-143.79;100.00;62634.88;5032017;28;20026;-55
2022/07/13 04:41:04;;;;;;;1.60;1.50;;;;;;;-143.79;100.00;62634.88;5032096;28;20034;-57
2022/07/13 04:43:30;;;;;;;1.90;1.80;;;26.20;86.00;;;-143.79;100.00;62634.88;5031993;28;20113;-55
2022/07/13 04:45:57;;;;;;;1.63;1.52;;;25.90;57.60;;;-143.79;100.00;62634.88;5031984;28;20116;-54
2022/07/13 04:48:23;;;;;;;1.75;1.65;;;26.00;90.80;;;-143.79;100.00;62634.88;5031902;28;20172;-52
2022/07/13 04:50:48;;;;;;;1.90;1.70;;;25.60;90.60;;;-143.79;100.00;62634.88;5031856;28;20034;-51
2022/07/13 04:53:14;;;;;;;1.92;1.80;;;26.00;69.10;;;-143.79;100.00;62634.88;5031897;28;20500;-54
2022/07/13 04:55:40;;;;;;;1.90;1.80;;;;;;;-143.79;100.00;62634.88;5030516;28;20037;-54
2022/07/13 04:58:07;;;;;;;2.40;2.17;;;;;;;-143.79;100.00;62634.88;5031873;28;20040;-55
2022/07/13 05:00:34;;;;;;;1.77;1.67;;;25.50;90.60;;;-143.79;100.00;62634.88;5032193;28;20392;-52
2022/07/13 05:03:00;;;;;;;2.20;2.00;;;;;;;-143.79;100.00;62634.88;5031521;28;20136;-52
2022/07/13 05:05:31;;;;;;;2.03;1.55;;;;;;;-143.79;100.00;62634.88;5031763;28;20044;-53
2022/07/13 05:08:01;;;;;;;1.95;1.83;;;25.60;90.60;;;-143.79;100.00;62634.88;5032069;28;20038;-53
2022/07/13 05:10:27;;;;;;;1.67;1.58;;;;;;;-143.79;100.00;62634.88;5030517;28;20117;-53
2022/07/13 05:12:53;;;;;;;1.88;1.77;;;;;;;-143.79;100.00;62634.88;5031646;28;20034;-52
2022/07/13 05:15:19;;;;;;;2.40;1.80;;;26.00;90.70;;;-143.79;100.00;62634.88;5031782;28;20033;-54
2022/07/13 05:17:45;;;;;;;2.28;1.98;;;26.00;90.80;;;-143.79;100.00;62634.88;5031740;28;20029;-52
2022/07/13 05:20:12;;;;;;;2.10;1.90;;;25.50;90.60;;;-143.79;100.00;62634.88;5031689;28;20076;-54
2022/07/13 05:22:38;;;;;;;2.05;1.60;;;;;;;-143.79;100.00;62634.88;5031571;28;20042;-52
2022/07/13 05:25:04;;;;;;;1.77;1.67;;;26.10;90.90;;;-143.79;100.00;62634.88;5031596;28;20127;-55
2022/07/13 05:27:30;;;;;;;1.67;1.50;;;;;;;-143.79;100.00;62634.88;5031759;28;20079;-55
2022/07/13 05:29:56;;;;;;;2.03;1.73;;;;;;;-143.79;100.00;62634.88;5032740;28;20038;-52
2022/07/13 05:32:22;;;;;;;2.22;1.80;;;;;;;-143.79;100.00;62634.88;5035379;28;20025;-53
2022/07/13 05:34:49;;;;;;;2.25;1.80;;;;;;;-143.79;100.00;62634.88;5035154;28;20033;-55
2022/07/13 05:37:15;;;;;;;1.85;1.60;;;;;;;-143.79;100.00;62634.88;5035180;28;20080;-56
2022/07/13 05:39:45;;;;;;;1.98;1.80;;;26.20;90.80;;;-143.79;100.00;62634.88;5035044;28;20041;-56
2022/07/13 05:42:11;;;;;;;;;;;25.80;58.10;;;-143.79;100.00;62634.88;5035442;28;20029;-56
2022/07/13 05:44:38;;;;;;;4.70;2.20;;;;;;;-143.79;100.00;62634.88;5034948;28;20249;-56
2022/07/13 05:47:04;;;;;;;2.33;1.85;;;26.20;91.00;;;-143.79;100.00;62634.88;5034947;28;20542;-56
2022/07/13 05:49:29;;;;;;;1.67;1.58;;;25.60;90.60;;;-143.79;100.00;62634.88;5034782;28;20038;-56
2022/07/13 05:51:55;;;;;;;1.45;1.35;;;26.10;90.80;;;-143.79;100.00;62634.88;5034886;28;20029;-55
2022/07/13 05:54:21;;;;;;;1.70;1.60;;;;;;;-143.79;100.00;62634.88;5034791;28;20021;-56
2022/07/13 05:56:47;;;;;;;2.50;1.83;;;26.00;91.00;;;-143.79;100.00;62634.88;5034648;28;20079;-55
2022/07/13 05:59:13;;;;;;;1.63;1.45;;;25.60;90.70;;;-143.79;100.00;62634.88;5034687;28;20488;-56
2022/07/13 06:01:39;;;;;;;2.55;1.92;;;25.50;91.00;;;-143.79;100.00;62634.88;5034405;28;20069;-55
2022/07/13 06:04:05;;;;;;;2.05;1.83;;;25.60;91.20;;;-143.79;100.00;62634.88;5034825;28;20030;-56
2022/07/13 06:06:30;;;;;;;2.10;1.90;;;26.30;91.40;;;-143.79;100.00;62634.88;5034633;28;20037;-56
2022/07/13 06:08:56;;;;;;;1.75;1.65;;;26.20;80.80;;;-143.79;100.00;62634.88;5034711;28;20492;-55
2022/07/13 06:11:22;;;;;;;3.17;1.60;;;23.30;57.00;;;-143.79;100.00;62634.88;5034642;28;20038;-55
2022/07/13 06:13:48;;;;;;;1.83;1.48;;;;;;;-143.79;100.00;62634.88;5034968;28;20107;-54
2022/07/13 06:16:14;;;;;;;3.13;1.60;;;;;;;-143.79;100.00;62634.88;5034431;28;20037;-56
2022/07/13 06:18:40;;;;;;;3.15;1.60;;;;;;;-143.79;100.00;62634.88;5034416;28;20424;-53
2022/07/13 06:21:06;;;;;;;2.55;1.95;;;;;;;-143.79;100.00;62634.88;5034429;28;20040;-55
2022/07/13 06:23:33;;;;;;;2.22;2.00;;;26.10;84.40;;;-143.79;100.00;62634.88;5034428;28;20045;-51
2022/07/13 06:26:00;;;;;;;3.85;2.10;;;;;;;-143.79;100.00;62634.88;5034641;28;20037;-52
2022/07/13 06:28:25;;;;;;;1.80;1.50;;;26.30;91.70;;;-143.79;100.00;62634.88;5034614;28;20403;-52
2022/07/13 06:30:51;;;;;;;4.03;1.50;;;25.80;91.40;;;-143.79;100.00;62634.88;5034303;28;20037;-52
2022/07/13 06:33:17;;;;;;;2.72;1.48;;;25.50;91.40;;;-143.79;100.00;62634.88;5034354;28;20435;-54
2022/07/13 06:35:42;;;;;;;2.42;1.48;;;25.90;91.50;;;-143.79;100.00;62634.88;5033979;28;20069;-53
2022/07/13 06:38:08;;;;;;;4.88;1.70;;;25.90;72.30;;;-143.79;100.00;62634.88;5034109;28;20041;-53
2022/07/13 06:40:34;;;;;;;2.85;1.40;;;26.50;59.10;;;-143.79;100.00;62634.88;5033810;28;20037;-55
2022/07/13 06:43:00;;;;;;;1.60;1.48;;;;;;;-143.79;100.00;62634.88;5033448;28;20048;-55
2022/07/13 06:45:26;;;;;;;2.10;1.70;;;26.20;67.20;;;-143.79;100.00;62634.88;5034191;28;20037;-54
2022/07/13 06:47:52;;;;;;;1.50;1.40;;;26.10;74.10;;;-143.79;100.00;62634.88;5034493;28;20036;-56
2022/07/13 06:50:18;;;;;;;1.85;1.70;;;25.90;73.20;;;-143.79;100.00;62634.88;5034421;28;20045;-53
2022/07/13 06:52:44;;;;;;;5.70;1.70;;;26.10;84.10;;;-143.79;100.00;62634.88;5034232;28;20032;-55
2022/07/13 06:55:11;;;;;;;2.80;1.83;;;25.90;57.90;;;-143.79;100.00;62634.88;5032649;28;20128;-55
2022/07/13 06:57:37;;;;;;;4.90;1.77;;;26.20;64.80;;;-143.79;100.00;62634.88;5034121;28;20033;-52
2022/07/13 07:00:05;;;;;;;3.13;1.58;;;26.00;91.70;;;-143.79;100.00;62634.88;5032786;28;20421;-54
2022/07/13 07:02:31;;;;;;;5.85;1.65;;;26.30;91.80;;;-143.79;100.00;62634.88;5033572;28;20046;-52
2022/07/13 07:04:56;;;;;;;1.30;1.20;;;25.80;91.40;;;-143.79;100.00;62634.88;5032640;28;20392;-52
2022/07/13 07:07:22;;;;;;;5.13;1.70;;;26.30;70.10;;;-143.79;100.00;62634.88;5032490;28;20037;-52
2022/07/13 07:09:49;;;;;;;2.85;1.63;;;26.20;86.50;;;-143.79;100.00;62634.88;5033727;28;20044;-52
2022/07/13 07:12:15;;;;;;;2.00;1.63;;;26.50;89.30;;;-143.79;100.00;62634.88;5033589;28;20079;-55
2022/07/13 07:14:41;;;;;;;3.90;1.50;;;;;;;-143.79;100.00;62634.88;5033631;28;20041;-54
2022/07/13 07:17:07;;;;;;;2.83;1.73;;;;;;;-143.79;100.00;62634.88;5033521;28;20032;-51
2022/07/13 07:19:34;;;;;;;3.38;1.40;;;;;;;-143.79;100.00;62634.88;5033421;28;20025;-54
2022/07/13 07:22:00;;;;;;;2.75;1.48;;;;;;;-143.79;100.00;62634.88;5033686;28;20521;-53
2022/07/13 07:24:27;;;;;;;2.65;1.50;;;;;;;-143.79;100.00;62634.88;5033461;28;20029;-55
2022/07/13 07:26:53;;;;;;;3.67;1.55;;;26.00;91.70;;;-143.79;100.00;62634.88;5032150;28;20021;-53
2022/07/13 07:29:19;;;;;;;4.60;1.80;;;26.40;92.00;;;-143.79;100.00;62634.88;5033362;28;20030;-53
2022/07/13 07:31:45;;;;;;;2.42;1.50;;;26.10;81.30;;;-143.79;100.00;62634.88;5033240;28;20021;-51
2022/07/13 07:34:11;;;;;;;2.55;1.80;;;26.40;91.80;;;-143.79;100.00;62634.88;5033191;28;20116;-51
2022/07/13 07:36:37;;;;;;;4.22;1.40;;;;;;;-143.79;100.00;62634.88;5032902;28;20144;-52
2022/07/13 07:39:03;;;;;;;3.05;1.48;;;26.30;67.00;;;-143.79;100.00;62634.88;5032603;28;20037;-53
2022/07/13 07:41:28;;;;;;;4.60;1.50;;;26.40;91.70;;;-143.79;100.00;62634.88;5032681;28;20082;-54
2022/07/13 07:43:55;;;;;;;6.18;1.92;;;;;;;-143.79;100.00;62634.88;5032628;28;20038;-54
2022/07/13 07:46:21;;;;;;;3.47;1.80;;;26.20;92.10;;;-143.79;100.00;62634.88;5032670;28;20030;-51
2022/07/13 07:48:47;;;;;;;4.22;2.05;;;25.60;78.40;;;-143.79;100.00;62634.88;5032558;28;20047;-51
2022/07/13 07:51:12;;;;;;;4.70;2.45;;;25.70;72.60;;;-143.79;100.00;62634.88;5032421;28;20392;-53
2022/07/13 07:53:38;;;;;;;5.20;2.08;;;;;;;-143.79;100.00;62634.88;5030966;28;20076;-54
2022/07/13 07:56:04;;;;;;;7.72;2.35;;;26.00;72.30;;;-143.79;100.00;62634.88;5032193;28;20071;-51
2022/07/13 07:58:30;;;;;;;6.93;2.47;;;;;;;-143.79;100.00;62634.88;5032649;28;20128;-54
2022/07/13 08:00:56;;;;;;;8.50;2.40;;;26.20;81.40;;;-143.79;100.00;62634.88;5032353;28;20030;-54
2022/07/13 08:03:22;;;;;;;2.92;2.10;;;;;;;-143.79;100.00;62634.88;5032196;28;20056;-52
2022/07/13 08:05:51;;;;;;;7.65;2.30;;;;;;;-143.79;100.00;62634.88;5032318;28;20048;-54
2022/07/13 08:08:18;;;;;;;7.63;2.17;;;26.30;92.60;;;-143.79;100.00;62634.88;5032635;28;20037;-51
2022/07/13 08:10:44;;;;;;;4.57;2.33;;;;;;;-143.79;100.00;62634.88;5032478;28;20120;-52
2022/07/13 08:13:10;;;;;;;4.50;2.58;;;;;;;-143.79;100.00;62634.88;5030854;28;20029;-53
2022/07/13 08:15:36;;;;;;;3.38;2.50;;;;;;;-143.79;100.00;62634.88;5032052;28;20039;-51
2022/07/13 08:18:03;;;;;;;5.35;2.47;;;26.40;70.10;;;-143.79;100.00;62634.88;5032050;28;20031;-51
2022/07/13 08:20:29;;;;;;;5.70;2.40;;;25.90;92.40;;;-143.79;100.00;62634.88;5032103;28;20487;-51
2022/07/13 08:22:55;;;;;;;6.25;2.80;;;26.10;92.40;;;-143.79;100.00;62634.88;5032139;28;20042;-53
2022/07/13 08:25:21;;;;;;;7.85;2.92;;;26.00;91.40;;;-143.79;100.00;62634.88;5032143;28;20040;-50
2022/07/13 08:27:46;;;;;;;7.05;2.42;;;25.90;92.10;;;-143.79;100.00;62634.88;5030978;28;20087;-52
2022/07/13 08:30:12;;;;;;;7.32;3.00;;;25.90;78.20;;;-143.79;100.00;62634.88;5031962;28;20037;-51
2022/07/13 08:32:39;;;;;;;7.93;2.53;;;26.20;59.30;;;-143.79;100.00;62634.88;5032181;28;20038;-51
2022/07/13 08:40:34;;;;;;;7.28;2.80;;;26.60;71.30;;;-143.79;100.00;62634.88;5031879;28;20087;-53
2022/07/13 08:43:00;;;;;;;6.47;2.90;;;;;;;-143.79;100.00;62634.88;5031927;28;20029;-55
2022/07/13 08:45:27;;;;;;;6.80;2.83;;;;;;;-143.79;100.00;62634.88;5032109;28;20034;-52
2022/07/13 08:47:52;;;;;;;10.30;2.80;;;26.10;92.20;;;-143.79;100.00;62634.88;5030635;28;20026;-52
2022/07/13 08:50:20;;;;;;;8.05;2.85;;;26.50;76.40;;;-143.79;100.00;62634.88;5031909;28;20136;-54
2022/07/13 08:52:46;;;;;;;6.78;2.72;;;25.80;92.30;;;-143.79;100.00;62634.88;5030577;28;20068;-52
2022/07/13 08:55:12;;;;;;;8.05;3.30;;;;;;;-143.79;100.00;62634.88;5031870;28;20051;-54
2022/07/13 08:57:41;;;;;;;11.68;3.30;;;26.20;58.20;;;-143.79;100.00;62634.88;5031858;28;20048;-53
2022/07/13 09:00:10;;;;;;;4.60;2.70;;;25.90;92.30;;;-143.79;100.00;62634.88;5030624;28;20479;-54
2022/07/13 09:02:38;;;;;;;5.07;2.75;;;26.10;79.80;;;-143.79;100.00;62634.88;5031872;28;20045;-52
2022/07/13 09:05:07;;;;;;;6.43;2.72;;;26.10;92.60;;;-143.79;100.00;62634.88;5033770;28;20155;-53
2022/07/13 09:07:34;;;;;;;7.40;2.43;;;26.20;92.50;;;-143.79;100.00;62634.88;5035889;28;20030;-52
2022/07/13 09:10:04;;;;;;;4.47;2.22;;;;;;;-143.79;100.00;62634.88;5035830;28;20041;-52
2022/07/13 09:12:30;;;;;;;8.82;2.30;;;26.40;92.60;;;-143.79;100.00;62634.88;5035764;28;20025;-50
2022/07/13 09:15:02;;;;;;;4.07;2.55;;;26.20;61.20;;;-143.79;100.00;62634.88;5035756;28;20076;-52
2022/07/13 09:17:37;;;;;;;9.35;2.60;;;26.40;59.10;;;-143.79;100.00;62634.88;5034430;28;20080;-51
2022/07/13 09:20:12;;;;;;;5.13;2.40;;;26.50;92.70;;;-143.79;100.00;62634.88;5035636;28;20037;-53
2022/07/13 09:22:55;;;;;;;4.50;2.70;;;26.60;92.60;;;-143.79;100.00;62634.88;5035537;28;20030;-52
2022/07/13 09:25:35;;;;;;;3.85;2.20;;;26.30;92.40;;;-143.79;100.00;62634.88;5035406;28;20037;-51
2022/07/13 09:28:09;;;;;;;4.45;2.38;;;26.60;92.50;;;-143.79;100.00;62634.88;5035785;28;20056;-54
2022/07/13 09:30:41;;;;;;;6.43;2.95;;;26.50;92.50;;;-143.79;100.00;62634.88;5035498;28;20045;-53
2022/07/13 09:33:07;;;;;;;4.43;2.55;;;26.40;92.30;;;-143.79;100.00;62634.88;5035635;28;20022;-53
2022/07/13 09:35:39;;;;;;;5.18;2.97;;;26.40;78.60;;;-143.79;100.00;62634.88;5035402;28;20110;-54
2022/07/13 09:38:05;;;;;;;6.70;2.90;;;26.00;92.30;;;-143.79;100.00;62634.88;5035561;28;20037;-51
2022/07/13 09:40:30;;;;;;;6.20;2.38;;;26.40;86.40;;;-143.79;100.00;62634.88;5035181;28;20159;-54
2022/07/13 09:48:26;;;;;;;8.50;3.22;;;;;;;-143.79;100.00;62634.88;5035015;28;20092;-55
2022/07/13 09:50:57;;;;;;;4.38;2.17;;;26.20;79.70;;;-143.79;100.00;62634.88;5017144;28;20083;-54
2022/07/13 09:53:33;;;;;;;8.30;3.00;;;26.70;92.20;;;-143.79;100.00;62634.88;5035101;28;20392;-54
2022/07/13 09:56:04;;;;;;;4.93;2.33;;;26.40;82.70;;;-143.79;100.00;62634.88;5035173;28;20547;-55
2022/07/13 09:58:36;;;;;;;7.40;2.63;;;26.50;58.10;;;-143.79;100.00;62634.88;5034781;28;20037;-54
2022/07/13 10:01:03;;;;;;;5.07;2.42;;;;;;;-143.79;100.00;62634.88;5035105;28;20042;-52
2022/07/13 10:03:30;;;;;;;5.95;2.55;;;26.70;81.60;;;-143.79;100.00;62634.88;5034487;28;20167;-52
2022/07/13 10:05:58;;;;;;;8.18;2.70;;;26.00;92.00;;;-143.79;100.00;62634.88;5034789;28;20124;-57
2022/07/13 10:08:24;;;;;;;3.53;2.03;;;;;;;-143.79;100.00;62634.88;5034756;28;20122;-56
2022/07/13 10:10:52;;;;;;;4.53;2.10;;;26.60;59.70;;;-143.79;100.00;62634.88;5034696;28;20116;-56
2022/07/13 10:13:18;;;;;;;4.32;2.55;;;26.40;91.90;;;-143.79;100.00;62634.88;5033757;28;20034;-57
2022/07/13 10:15:45;;;;;;;4.72;2.15;;;26.80;63.90;;;-143.79;100.00;62634.88;5034259;28;20396;-57
2022/07/13 10:18:19;;;;;;;6.15;2.35;;;26.50;59.10;;;-143.79;100.00;62634.88;5034439;28;20087;-55
2022/07/13 10:20:53;;;;;;;4.20;1.88;;;26.90;91.50;;;-143.79;100.00;62634.88;5033149;28;20025;-56
2022/07/13 10:23:36;;;;;;;5.00;1.90;;;26.70;91.00;;;-143.79;100.00;62634.88;5033084;28;20045;-56
2022/07/13 10:26:03;;;;;;;7.03;1.88;;;;;;;-143.79;100.00;62634.88;5033074;28;20081;-54
2022/07/13 10:28:29;;;;;;;4.22;1.98;;;26.50;64.50;;;-143.79;100.00;62634.88;5033137;28;20036;-55
2022/07/13 10:30:55;;;;;;;7.38;1.95;;;26.80;91.30;;;-143.79;100.00;62634.88;5033238;28;20522;-53
2022/07/13 10:33:24;;;;;;;4.13;2.30;;;26.90;91.40;;;-143.79;100.00;62634.88;5034346;28;20065;-57